sensor_id;sensor_type;location;lat;lon;timestamp;P1;durP1;ratioP1;P2;durP2;ratioP2
58878;SDS011;44660;42.664;23.266;2023-08-21T00:01:02;10.30;;;5.22;;
58878;SDS011;44660;42.664;23.266;2023-08-21T00:03:27;7.00;;;4.97;;
58878;SDS011;44660;42.664;23.266;2023-08-21T00:05:52;6.78;;;5.03;;
58878;SDS011;44660;42.664;23.266;2023-08-21T00:08:18;7.22;;;5.38;;
58878;SDS011;44660;42.664;23.266;2023-08-21T00:10:44;7.03;;;5.03;;
58878;SDS011;44660;42.664;23.266;2023-08-21T00:13:10;7.22;;;5.20;;
58878;SDS011;44660;42.664;23.266;2023-08-21T00:15:37;7.55;;;5.40;;
58878;SDS011;44660;42.664;23.266;2023-08-21T00:18:03;9.10;;;5.10;;
58878;SDS011;44660;42.664;23.266;2023-08-21T00:20:29;7.70;;;4.93;;
58878;SDS011;44660;42.664;23.266;2023-08-21T00:22:55;7.40;;;5.03;;
58878;SDS011;44660;42.664;23.266;2023-08-21T00:25:21;8.40;;;5.20;;
58878;SDS011;44660;42.664;23.266;2023-08-21T00:27:47;7.75;;;5.20;;
58878;SDS011;44660;42.664;23.266;2023-08-21T00:30:12;6.13;;;5.20;;
58878;SDS011;44660;42.664;23.266;2023-08-21T00:32:40;8.70;;;5.70;;
58878;SDS011;44660;42.664;23.266;2023-08-21T00:35:06;7.88;;;5.28;;
58878;SDS011;44660;42.664;23.266;2023-08-21T00:37:31;8.35;;;5.18;;
58878;SDS011;44660;42.664;23.266;2023-08-21T00:39:57;7.15;;;5.50;;
58878;SDS011;44660;42.664;23.266;2023-08-21T00:42:22;9.20;;;5.22;;
58878;SDS011;44660;42.664;23.266;2023-08-21T00:44:48;7.35;;;5.35;;
58878;SDS011;44660;42.664;23.266;2023-08-21T00:47:13;8.32;;;5.07;;
58878;SDS011;44660;42.664;23.266;2023-08-21T00:49:39;10.52;;;5.30;;
58878;SDS011;44660;42.664;23.266;2023-08-21T00:52:06;7.05;;;4.80;;
58878;SDS011;44660;42.664;23.266;2023-08-21T00:54:34;10.10;;;5.43;;
58878;SDS011;44660;42.664;23.266;2023-08-21T00:57:00;9.52;;;5.45;;
58878;SDS011;44660;42.664;23.266;2023-08-21T00:59:26;9.25;;;5.15;;
58878;SDS011;44660;42.664;23.266;2023-08-21T01:01:51;5.88;;;5.13;;
58878;SDS011;44660;42.664;23.266;2023-08-21T01:04:17;7.82;;;4.95;;
58878;SDS011;44660;42.664;23.266;2023-08-21T01:06:42;9.80;;;5.55;;
58878;SDS011;44660;42.664;23.266;2023-08-21T01:09:08;7.57;;;5.03;;
58878;SDS011;44660;42.664;23.266;2023-08-21T01:12:10;7.13;;;5.32;;
58878;SDS011;44660;42.664;23.266;2023-08-21T01:14:50;9.73;;;5.27;;
58878;SDS011;44660;42.664;23.266;2023-08-21T01:17:20;8.80;;;5.00;;
58878;SDS011;44660;42.664;23.266;2023-08-21T01:19:49;9.20;;;5.15;;
58878;SDS011;44660;42.664;23.266;2023-08-21T01:22:15;7.43;;;4.80;;
58878;SDS011;44660;42.664;23.266;2023-08-21T01:24:41;6.97;;;5.15;;
58878;SDS011;44660;42.664;23.266;2023-08-21T01:27:07;8.07;;;5.32;;
58878;SDS011;44660;42.664;23.266;2023-08-21T01:29:32;7.20;;;5.20;;
58878;SDS011;44660;42.664;23.266;2023-08-21T01:32:05;7.43;;;5.53;;
58878;SDS011;44660;42.664;23.266;2023-08-21T01:34:34;16.25;;;5.70;;
58878;SDS011;44660;42.664;23.266;2023-08-21T01:37:03;6.10;;;5.50;;
58878;SDS011;44660;42.664;23.266;2023-08-21T01:39:29;6.53;;;5.63;;
58878;SDS011;44660;42.664;23.266;2023-08-21T01:41:55;7.95;;;5.15;;
58878;SDS011;44660;42.664;23.266;2023-08-21T01:44:21;8.23;;;5.88;;
58878;SDS011;44660;42.664;23.266;2023-08-21T01:46:47;6.82;;;5.32;;
58878;SDS011;44660;42.664;23.266;2023-08-21T01:49:12;8.55;;;5.35;;
58878;SDS011;44660;42.664;23.266;2023-08-21T01:51:38;8.23;;;5.20;;
58878;SDS011;44660;42.664;23.266;2023-08-21T01:54:03;8.98;;;5.25;;
58878;SDS011;44660;42.664;23.266;2023-08-21T01:56:29;10.55;;;5.28;;
58878;SDS011;44660;42.664;23.266;2023-08-21T01:58:54;10.23;;;5.50;;
58878;SDS011;44660;42.664;23.266;2023-08-21T02:01:19;11.05;;;5.70;;
58878;SDS011;44660;42.664;23.266;2023-08-21T02:03:45;8.95;;;5.43;;
58878;SDS011;44660;42.664;23.266;2023-08-21T02:06:11;8.38;;;5.50;;
58878;SDS011;44660;42.664;23.266;2023-08-21T02:08:37;11.77;;;5.40;;
58878;SDS011;44660;42.664;23.266;2023-08-21T02:11:02;10.55;;;6.40;;
58878;SDS011;44660;42.664;23.266;2023-08-21T02:13:28;10.57;;;5.57;;
58878;SDS011;44660;42.664;23.266;2023-08-21T02:15:53;13.13;;;7.57;;
58878;SDS011;44660;42.664;23.266;2023-08-21T02:18:19;8.63;;;5.75;;
58878;SDS011;44660;42.664;23.266;2023-08-21T02:20:45;7.80;;;5.38;;
58878;SDS011;44660;42.664;23.266;2023-08-21T02:23:12;9.75;;;5.50;;
58878;SDS011;44660;42.664;23.266;2023-08-21T02:25:37;7.75;;;5.35;;
58878;SDS011;44660;42.664;23.266;2023-08-21T02:28:03;7.00;;;6.05;;
58878;SDS011;44660;42.664;23.266;2023-08-21T02:30:29;5.93;;;5.05;;
58878;SDS011;44660;42.664;23.266;2023-08-21T02:32:54;8.30;;;5.40;;
58878;SDS011;44660;42.664;23.266;2023-08-21T02:35:20;9.23;;;5.60;;
58878;SDS011;44660;42.664;23.266;2023-08-21T02:37:46;7.88;;;5.25;;
58878;SDS011;44660;42.664;23.266;2023-08-21T02:40:12;6.40;;;5.70;;
58878;SDS011;44660;42.664;23.266;2023-08-21T02:42:37;10.82;;;6.10;;
58878;SDS011;44660;42.664;23.266;2023-08-21T02:45:03;7.93;;;5.35;;
58878;SDS011;44660;42.664;23.266;2023-08-21T02:47:42;7.38;;;5.03;;
58878;SDS011;44660;42.664;23.266;2023-08-21T02:50:09;7.43;;;5.25;;
58878;SDS011;44660;42.664;23.266;2023-08-21T02:52:35;10.70;;;5.90;;
58878;SDS011;44660;42.664;23.266;2023-08-21T02:55:01;7.75;;;5.43;;
58878;SDS011;44660;42.664;23.266;2023-08-21T02:57:27;9.63;;;5.78;;
58878;SDS011;44660;42.664;23.266;2023-08-21T02:59:53;8.20;;;5.28;;
58878;SDS011;44660;42.664;23.266;2023-08-21T03:02:19;8.07;;;5.43;;
58878;SDS011;44660;42.664;23.266;2023-08-21T03:04:44;7.95;;;5.50;;
58878;SDS011;44660;42.664;23.266;2023-08-21T03:07:10;6.88;;;5.82;;
58878;SDS011;44660;42.664;23.266;2023-08-21T03:09:36;10.43;;;5.55;;
58878;SDS011;44660;42.664;23.266;2023-08-21T03:12:02;7.95;;;6.00;;
58878;SDS011;44660;42.664;23.266;2023-08-21T03:14:28;7.70;;;5.68;;
58878;SDS011;44660;42.664;23.266;2023-08-21T03:16:53;9.40;;;5.60;;
58878;SDS011;44660;42.664;23.266;2023-08-21T03:19:19;10.60;;;5.50;;
58878;SDS011;44660;42.664;23.266;2023-08-21T03:21:45;9.48;;;6.00;;
58878;SDS011;44660;42.664;23.266;2023-08-21T03:24:10;8.55;;;5.93;;
58878;SDS011;44660;42.664;23.266;2023-08-21T03:26:36;8.68;;;6.03;;
58878;SDS011;44660;42.664;23.266;2023-08-21T03:29:01;8.63;;;6.03;;
58878;SDS011;44660;42.664;23.266;2023-08-21T03:31:27;11.45;;;5.72;;
58878;SDS011;44660;42.664;23.266;2023-08-21T03:33:52;7.88;;;5.78;;
58878;SDS011;44660;42.664;23.266;2023-08-21T03:36:18;11.02;;;6.07;;
58878;SDS011;44660;42.664;23.266;2023-08-21T03:38:44;10.77;;;6.30;;
58878;SDS011;44660;42.664;23.266;2023-08-21T03:41:10;10.60;;;5.97;;
58878;SDS011;44660;42.664;23.266;2023-08-21T03:43:36;9.85;;;6.40;;
58878;SDS011;44660;42.664;23.266;2023-08-21T03:46:02;10.13;;;6.22;;
58878;SDS011;44660;42.664;23.266;2023-08-21T03:48:28;9.65;;;6.03;;
58878;SDS011;44660;42.664;23.266;2023-08-21T03:50:53;9.82;;;7.13;;
58878;SDS011;44660;42.664;23.266;2023-08-21T03:53:19;10.75;;;6.05;;
58878;SDS011;44660;42.664;23.266;2023-08-21T03:55:46;7.35;;;6.35;;
58878;SDS011;44660;42.664;23.266;2023-08-21T03:58:13;11.93;;;6.63;;
58878;SDS011;44660;42.664;23.266;2023-08-21T04:00:39;11.85;;;7.70;;
58878;SDS011;44660;42.664;23.266;2023-08-21T04:03:05;18.05;;;12.15;;
58878;SDS011;44660;42.664;23.266;2023-08-21T04:05:30;13.90;;;8.35;;
58878;SDS011;44660;42.664;23.266;2023-08-21T04:07:56;17.98;;;7.18;;
58878;SDS011;44660;42.664;23.266;2023-08-21T04:10:21;10.38;;;6.80;;
58878;SDS011;44660;42.664;23.266;2023-08-21T04:12:47;16.65;;;9.25;;
58878;SDS011;44660;42.664;23.266;2023-08-21T04:15:12;71.53;;;42.20;;
58878;SDS011;44660;42.664;23.266;2023-08-21T04:17:38;27.75;;;17.80;;
58878;SDS011;44660;42.664;23.266;2023-08-21T04:20:04;25.63;;;18.88;;
58878;SDS011;44660;42.664;23.266;2023-08-21T04:22:29;34.70;;;21.58;;
58878;SDS011;44660;42.664;23.266;2023-08-21T04:24:55;26.88;;;17.55;;
58878;SDS011;44660;42.664;23.266;2023-08-21T04:27:20;41.97;;;27.42;;
58878;SDS011;44660;42.664;23.266;2023-08-21T04:29:46;25.02;;;17.85;;
58878;SDS011;44660;42.664;23.266;2023-08-21T04:32:11;18.83;;;8.93;;
58878;SDS011;44660;42.664;23.266;2023-08-21T04:34:37;12.27;;;6.90;;
58878;SDS011;44660;42.664;23.266;2023-08-21T04:37:03;12.18;;;7.78;;
58878;SDS011;44660;42.664;23.266;2023-08-21T04:39:29;15.73;;;7.30;;
58878;SDS011;44660;42.664;23.266;2023-08-21T04:41:55;50.00;;;31.88;;
58878;SDS011;44660;42.664;23.266;2023-08-21T04:44:20;53.65;;;33.80;;
58878;SDS011;44660;42.664;23.266;2023-08-21T04:46:47;54.33;;;37.50;;
58878;SDS011;44660;42.664;23.266;2023-08-21T04:49:13;33.95;;;14.38;;
58878;SDS011;44660;42.664;23.266;2023-08-21T04:51:38;18.02;;;9.40;;
58878;SDS011;44660;42.664;23.266;2023-08-21T04:54:04;11.00;;;7.50;;
58878;SDS011;44660;42.664;23.266;2023-08-21T04:56:29;15.63;;;7.40;;
58878;SDS011;44660;42.664;23.266;2023-08-21T04:58:55;13.63;;;7.30;;
58878;SDS011;44660;42.664;23.266;2023-08-21T05:01:20;17.80;;;7.50;;
58878;SDS011;44660;42.664;23.266;2023-08-21T05:03:46;17.42;;;7.70;;
58878;SDS011;44660;42.664;23.266;2023-08-21T05:06:11;12.75;;;6.82;;
58878;SDS011;44660;42.664;23.266;2023-08-21T05:08:37;20.60;;;7.57;;
58878;SDS011;44660;42.664;23.266;2023-08-21T05:11:02;15.48;;;7.10;;
58878;SDS011;44660;42.664;23.266;2023-08-21T05:13:27;20.58;;;7.03;;
58878;SDS011;44660;42.664;23.266;2023-08-21T05:15:53;27.98;;;15.73;;
58878;SDS011;44660;42.664;23.266;2023-08-21T05:18:20;31.45;;;17.67;;
58878;SDS011;44660;42.664;23.266;2023-08-21T05:20:46;27.48;;;15.38;;
58878;SDS011;44660;42.664;23.266;2023-08-21T05:23:13;15.65;;;10.50;;
58878;SDS011;44660;42.664;23.266;2023-08-21T05:25:38;29.30;;;10.40;;
58878;SDS011;44660;42.664;23.266;2023-08-21T05:28:04;13.77;;;9.73;;
58878;SDS011;44660;42.664;23.266;2023-08-21T05:30:30;19.00;;;9.57;;
58878;SDS011;44660;42.664;23.266;2023-08-21T05:32:56;22.95;;;10.38;;
58878;SDS011;44660;42.664;23.266;2023-08-21T05:35:21;16.70;;;9.98;;
58878;SDS011;44660;42.664;23.266;2023-08-21T05:37:47;21.33;;;10.13;;
58878;SDS011;44660;42.664;23.266;2023-08-21T05:40:12;20.10;;;9.95;;
58878;SDS011;44660;42.664;23.266;2023-08-21T05:42:38;17.08;;;9.38;;
58878;SDS011;44660;42.664;23.266;2023-08-21T05:45:04;20.30;;;9.85;;
58878;SDS011;44660;42.664;23.266;2023-08-21T05:47:30;18.20;;;9.60;;
58878;SDS011;44660;42.664;23.266;2023-08-21T05:49:56;18.08;;;9.65;;
58878;SDS011;44660;42.664;23.266;2023-08-21T05:52:22;22.27;;;8.98;;
58878;SDS011;44660;42.664;23.266;2023-08-21T05:54:48;15.35;;;8.70;;
58878;SDS011;44660;42.664;23.266;2023-08-21T05:57:14;14.77;;;8.63;;
58878;SDS011;44660;42.664;23.266;2023-08-21T05:59:43;15.82;;;8.65;;
58878;SDS011;44660;42.664;23.266;2023-08-21T06:02:10;16.58;;;8.35;;
58878;SDS011;44660;42.664;23.266;2023-08-21T06:04:37;18.33;;;8.32;;
58878;SDS011;44660;42.664;23.266;2023-08-21T06:07:02;21.13;;;8.05;;
58878;SDS011;44660;42.664;23.266;2023-08-21T06:09:28;17.80;;;8.60;;
58878;SDS011;44660;42.664;23.266;2023-08-21T06:11:54;20.55;;;11.15;;
58878;SDS011;44660;42.664;23.266;2023-08-21T06:14:20;27.60;;;14.82;;
58878;SDS011;44660;42.664;23.266;2023-08-21T06:16:53;21.75;;;12.18;;
58878;SDS011;44660;42.664;23.266;2023-08-21T06:19:18;21.83;;;9.88;;
58878;SDS011;44660;42.664;23.266;2023-08-21T06:21:44;20.33;;;9.27;;
58878;SDS011;44660;42.664;23.266;2023-08-21T06:24:10;21.30;;;8.75;;
58878;SDS011;44660;42.664;23.266;2023-08-21T06:26:35;17.80;;;9.32;;
58878;SDS011;44660;42.664;23.266;2023-08-21T06:29:01;18.95;;;7.68;;
58878;SDS011;44660;42.664;23.266;2023-08-21T06:31:26;21.70;;;7.57;;
58878;SDS011;44660;42.664;23.266;2023-08-21T06:33:51;13.63;;;7.10;;
58878;SDS011;44660;42.664;23.266;2023-08-21T06:36:17;15.80;;;7.22;;
58878;SDS011;44660;42.664;23.266;2023-08-21T06:38:42;11.45;;;6.45;;
58878;SDS011;44660;42.664;23.266;2023-08-21T06:41:09;14.48;;;6.88;;
58878;SDS011;44660;42.664;23.266;2023-08-21T06:43:34;13.57;;;6.68;;
58878;SDS011;44660;42.664;23.266;2023-08-21T06:46:01;15.38;;;5.95;;
58878;SDS011;44660;42.664;23.266;2023-08-21T06:48:26;17.73;;;6.55;;
58878;SDS011;44660;42.664;23.266;2023-08-21T06:50:52;14.93;;;6.72;;
58878;SDS011;44660;42.664;23.266;2023-08-21T06:53:17;17.38;;;6.45;;
58878;SDS011;44660;42.664;23.266;2023-08-21T06:55:44;14.32;;;6.32;;
58878;SDS011;44660;42.664;23.266;2023-08-21T06:58:10;10.65;;;6.18;;
58878;SDS011;44660;42.664;23.266;2023-08-21T07:00:36;12.40;;;6.03;;
58878;SDS011;44660;42.664;23.266;2023-08-21T07:03:01;11.05;;;5.95;;
58878;SDS011;44660;42.664;23.266;2023-08-21T07:05:28;10.05;;;5.43;;
58878;SDS011;44660;42.664;23.266;2023-08-21T07:07:54;8.10;;;5.45;;
58878;SDS011;44660;42.664;23.266;2023-08-21T07:10:20;10.10;;;5.43;;
58878;SDS011;44660;42.664;23.266;2023-08-21T07:12:46;9.40;;;5.28;;
58878;SDS011;44660;42.664;23.266;2023-08-21T07:15:11;7.15;;;4.43;;
58878;SDS011;44660;42.664;23.266;2023-08-21T07:17:37;11.55;;;5.60;;
58878;SDS011;44660;42.664;23.266;2023-08-21T07:20:02;10.90;;;5.20;;
58878;SDS011;44660;42.664;23.266;2023-08-21T07:22:29;9.65;;;5.05;;
58878;SDS011;44660;42.664;23.266;2023-08-21T07:24:54;7.00;;;4.88;;
58878;SDS011;44660;42.664;23.266;2023-08-21T07:27:20;9.18;;;4.80;;
58878;SDS011;44660;42.664;23.266;2023-08-21T07:29:45;7.47;;;4.88;;
58878;SDS011;44660;42.664;23.266;2023-08-21T07:32:11;10.07;;;4.60;;
58878;SDS011;44660;42.664;23.266;2023-08-21T07:34:37;7.78;;;5.05;;
58878;SDS011;44660;42.664;23.266;2023-08-21T07:37:02;7.95;;;4.50;;
58878;SDS011;44660;42.664;23.266;2023-08-21T07:39:28;9.55;;;5.10;;
58878;SDS011;44660;42.664;23.266;2023-08-21T07:41:54;9.07;;;4.80;;
58878;SDS011;44660;42.664;23.266;2023-08-21T07:44:19;8.60;;;4.60;;
58878;SDS011;44660;42.664;23.266;2023-08-21T07:46:45;7.85;;;4.38;;
58878;SDS011;44660;42.664;23.266;2023-08-21T07:49:10;7.55;;;4.55;;
58878;SDS011;44660;42.664;23.266;2023-08-21T07:51:35;9.00;;;4.72;;
58878;SDS011;44660;42.664;23.266;2023-08-21T07:54:01;8.23;;;4.57;;
58878;SDS011;44660;42.664;23.266;2023-08-21T07:56:27;10.77;;;4.68;;
58878;SDS011;44660;42.664;23.266;2023-08-21T07:58:52;9.15;;;4.63;;
58878;SDS011;44660;42.664;23.266;2023-08-21T08:01:18;7.50;;;4.57;;
58878;SDS011;44660;42.664;23.266;2023-08-21T08:03:45;5.50;;;4.55;;
58878;SDS011;44660;42.664;23.266;2023-08-21T08:06:11;7.50;;;4.65;;
58878;SDS011;44660;42.664;23.266;2023-08-21T08:08:37;6.72;;;4.28;;
58878;SDS011;44660;42.664;23.266;2023-08-21T08:11:02;5.95;;;4.43;;
58878;SDS011;44660;42.664;23.266;2023-08-21T08:13:29;5.28;;;4.28;;
58878;SDS011;44660;42.664;23.266;2023-08-21T08:15:54;5.93;;;4.20;;
58878;SDS011;44660;42.664;23.266;2023-08-21T08:18:20;5.20;;;4.38;;
58878;SDS011;44660;42.664;23.266;2023-08-21T08:20:45;5.28;;;4.28;;
58878;SDS011;44660;42.664;23.266;2023-08-21T08:23:11;5.88;;;4.47;;
58878;SDS011;44660;42.664;23.266;2023-08-21T08:25:36;8.82;;;4.63;;
58878;SDS011;44660;42.664;23.266;2023-08-21T08:28:02;4.97;;;4.47;;
58878;SDS011;44660;42.664;23.266;2023-08-21T08:30:28;6.80;;;4.55;;
58878;SDS011;44660;42.664;23.266;2023-08-21T08:32:53;5.65;;;4.10;;
58878;SDS011;44660;42.664;23.266;2023-08-21T08:35:19;6.28;;;4.40;;
58878;SDS011;44660;42.664;23.266;2023-08-21T08:37:45;7.20;;;4.60;;
58878;SDS011;44660;42.664;23.266;2023-08-21T08:40:10;7.00;;;4.38;;
58878;SDS011;44660;42.664;23.266;2023-08-21T08:42:36;7.85;;;4.90;;
58878;SDS011;44660;42.664;23.266;2023-08-21T08:45:03;6.93;;;4.00;;
58878;SDS011;44660;42.664;23.266;2023-08-21T08:47:30;7.18;;;4.35;;
58878;SDS011;44660;42.664;23.266;2023-08-21T08:49:58;7.30;;;4.35;;
58878;SDS011;44660;42.664;23.266;2023-08-21T08:52:25;6.05;;;4.45;;
58878;SDS011;44660;42.664;23.266;2023-08-21T08:54:52;6.57;;;4.35;;
58878;SDS011;44660;42.664;23.266;2023-08-21T08:57:20;8.32;;;4.60;;
58878;SDS011;44660;42.664;23.266;2023-08-21T08:59:46;6.88;;;4.25;;
58878;SDS011;44660;42.664;23.266;2023-08-21T09:02:11;5.30;;;4.05;;
58878;SDS011;44660;42.664;23.266;2023-08-21T09:04:37;8.10;;;4.13;;
58878;SDS011;44660;42.664;23.266;2023-08-21T09:07:06;5.53;;;3.88;;
58878;SDS011;44660;42.664;23.266;2023-08-21T09:09:39;6.05;;;4.13;;
58878;SDS011;44660;42.664;23.266;2023-08-21T09:12:12;5.53;;;4.18;;
58878;SDS011;44660;42.664;23.266;2023-08-21T09:14:39;6.22;;;4.00;;
58878;SDS011;44660;42.664;23.266;2023-08-21T09:17:05;7.80;;;4.20;;
58878;SDS011;44660;42.664;23.266;2023-08-21T09:19:31;6.18;;;4.18;;
58878;SDS011;44660;42.664;23.266;2023-08-21T09:21:57;8.13;;;4.50;;
58878;SDS011;44660;42.664;23.266;2023-08-21T09:24:23;7.57;;;4.10;;
58878;SDS011;44660;42.664;23.266;2023-08-21T09:26:49;8.70;;;4.32;;
58878;SDS011;44660;42.664;23.266;2023-08-21T09:29:15;10.45;;;4.38;;
58878;SDS011;44660;42.664;23.266;2023-08-21T09:31:41;7.85;;;4.88;;
58878;SDS011;44660;42.664;23.266;2023-08-21T09:34:10;6.10;;;4.13;;
58878;SDS011;44660;42.664;23.266;2023-08-21T09:36:36;7.20;;;4.10;;
58878;SDS011;44660;42.664;23.266;2023-08-21T09:39:04;12.52;;;4.57;;
58878;SDS011;44660;42.664;23.266;2023-08-21T09:41:31;5.50;;;4.05;;
58878;SDS011;44660;42.664;23.266;2023-08-21T09:43:59;9.15;;;3.97;;
58878;SDS011;44660;42.664;23.266;2023-08-21T09:46:26;6.65;;;3.90;;
58878;SDS011;44660;42.664;23.266;2023-08-21T09:48:53;8.65;;;3.72;;
58878;SDS011;44660;42.664;23.266;2023-08-21T09:51:19;7.90;;;3.95;;
58878;SDS011;44660;42.664;23.266;2023-08-21T09:53:45;4.03;;;3.63;;
58878;SDS011;44660;42.664;23.266;2023-08-21T09:56:14;5.53;;;3.95;;
58878;SDS011;44660;42.664;23.266;2023-08-21T09:58:39;7.68;;;3.72;;
58878;SDS011;44660;42.664;23.266;2023-08-21T10:01:05;4.57;;;3.85;;
58878;SDS011;44660;42.664;23.266;2023-08-21T10:03:42;4.65;;;3.97;;
58878;SDS011;44660;42.664;23.266;2023-08-21T10:06:12;4.97;;;3.72;;
58878;SDS011;44660;42.664;23.266;2023-08-21T10:08:41;4.47;;;3.85;;
58878;SDS011;44660;42.664;23.266;2023-08-21T10:11:10;11.75;;;4.00;;
58878;SDS011;44660;42.664;23.266;2023-08-21T10:13:37;6.88;;;3.80;;
58878;SDS011;44660;42.664;23.266;2023-08-21T10:16:04;8.35;;;4.18;;
58878;SDS011;44660;42.664;23.266;2023-08-21T10:18:31;10.03;;;3.97;;
58878;SDS011;44660;42.664;23.266;2023-08-21T10:21:13;5.78;;;3.83;;
58878;SDS011;44660;42.664;23.266;2023-08-21T10:23:46;6.20;;;3.88;;
58878;SDS011;44660;42.664;23.266;2023-08-21T10:26:18;6.65;;;3.63;;
58878;SDS011;44660;42.664;23.266;2023-08-21T10:28:51;6.28;;;3.60;;
58878;SDS011;44660;42.664;23.266;2023-08-21T10:33:59;4.15;;;3.58;;
58878;SDS011;44660;42.664;23.266;2023-08-21T10:36:40;6.13;;;3.88;;
58878;SDS011;44660;42.664;23.266;2023-08-21T10:39:26;8.05;;;3.78;;
58878;SDS011;44660;42.664;23.266;2023-08-21T10:42:03;5.43;;;3.50;;
58878;SDS011;44660;42.664;23.266;2023-08-21T10:49:53;5.15;;;3.78;;
58878;SDS011;44660;42.664;23.266;2023-08-21T10:52:24;4.35;;;3.58;;
58878;SDS011;44660;42.664;23.266;2023-08-21T10:54:50;7.90;;;3.83;;
58878;SDS011;44660;42.664;23.266;2023-08-21T10:57:21;7.95;;;3.80;;
58878;SDS011;44660;42.664;23.266;2023-08-21T10:59:49;7.82;;;4.00;;
58878;SDS011;44660;42.664;23.266;2023-08-21T11:02:36;4.13;;;3.50;;
58878;SDS011;44660;42.664;23.266;2023-08-21T11:05:03;5.95;;;3.88;;
58878;SDS011;44660;42.664;23.266;2023-08-21T11:07:30;7.30;;;3.67;;
58878;SDS011;44660;42.664;23.266;2023-08-21T11:10:01;7.90;;;3.97;;
58878;SDS011;44660;42.664;23.266;2023-08-21T11:12:28;6.28;;;4.20;;
58878;SDS011;44660;42.664;23.266;2023-08-21T11:14:53;6.35;;;3.70;;
58878;SDS011;44660;42.664;23.266;2023-08-21T11:17:18;5.80;;;3.85;;
58878;SDS011;44660;42.664;23.266;2023-08-21T11:19:44;7.95;;;3.70;;
58878;SDS011;44660;42.664;23.266;2023-08-21T11:22:10;4.35;;;3.60;;
58878;SDS011;44660;42.664;23.266;2023-08-21T11:27:02;5.20;;;3.60;;
58878;SDS011;44660;42.664;23.266;2023-08-21T11:29:29;8.35;;;3.70;;
58878;SDS011;44660;42.664;23.266;2023-08-21T11:32:01;11.32;;;3.72;;
58878;SDS011;44660;42.664;23.266;2023-08-21T11:34:28;8.82;;;3.55;;
58878;SDS011;44660;42.664;23.266;2023-08-21T11:36:53;6.47;;;3.83;;
58878;SDS011;44660;42.664;23.266;2023-08-21T11:39:19;4.72;;;3.78;;
58878;SDS011;44660;42.664;23.266;2023-08-21T11:41:54;9.63;;;3.38;;
58878;SDS011;44660;42.664;23.266;2023-08-21T11:44:23;6.60;;;3.95;;
58878;SDS011;44660;42.664;23.266;2023-08-21T11:46:52;5.60;;;3.50;;
58878;SDS011;44660;42.664;23.266;2023-08-21T11:49:20;5.50;;;3.65;;
58878;SDS011;44660;42.664;23.266;2023-08-21T11:51:47;8.73;;;3.90;;
58878;SDS011;44660;42.664;23.266;2023-08-21T11:54:13;5.53;;;3.72;;
58878;SDS011;44660;42.664;23.266;2023-08-21T11:56:38;5.63;;;3.90;;
58878;SDS011;44660;42.664;23.266;2023-08-21T11:59:06;6.43;;;3.75;;
58878;SDS011;44660;42.664;23.266;2023-08-21T12:01:35;5.57;;;3.60;;
58878;SDS011;44660;42.664;23.266;2023-08-21T12:04:00;9.90;;;3.83;;
58878;SDS011;44660;42.664;23.266;2023-08-21T12:06:26;7.28;;;3.58;;
58878;SDS011;44660;42.664;23.266;2023-08-21T12:08:52;5.88;;;3.72;;
58878;SDS011;44660;42.664;23.266;2023-08-21T12:11:18;4.57;;;3.47;;
58878;SDS011;44660;42.664;23.266;2023-08-21T12:13:43;5.90;;;3.65;;
58878;SDS011;44660;42.664;23.266;2023-08-21T12:16:09;4.88;;;3.90;;
58878;SDS011;44660;42.664;23.266;2023-08-21T12:18:34;8.32;;;4.07;;
58878;SDS011;44660;42.664;23.266;2023-08-21T12:21:00;5.50;;;4.00;;
58878;SDS011;44660;42.664;23.266;2023-08-21T12:23:25;7.32;;;3.90;;
58878;SDS011;44660;42.664;23.266;2023-08-21T12:25:51;5.05;;;3.70;;
58878;SDS011;44660;42.664;23.266;2023-08-21T12:28:16;4.43;;;3.83;;
58878;SDS011;44660;42.664;23.266;2023-08-21T12:30:42;5.57;;;3.50;;
58878;SDS011;44660;42.664;23.266;2023-08-21T12:33:07;10.43;;;3.92;;
58878;SDS011;44660;42.664;23.266;2023-08-21T12:35:32;6.97;;;3.85;;
58878;SDS011;44660;42.664;23.266;2023-08-21T12:37:58;7.40;;;3.63;;
58878;SDS011;44660;42.664;23.266;2023-08-21T12:40:23;4.28;;;3.75;;
58878;SDS011;44660;42.664;23.266;2023-08-21T12:42:49;11.15;;;3.80;;
58878;SDS011;44660;42.664;23.266;2023-08-21T12:45:15;5.50;;;3.75;;
58878;SDS011;44660;42.664;23.266;2023-08-21T12:47:41;5.88;;;3.90;;
58878;SDS011;44660;42.664;23.266;2023-08-21T12:50:06;6.55;;;3.90;;
58878;SDS011;44660;42.664;23.266;2023-08-21T12:52:32;7.20;;;3.83;;
58878;SDS011;44660;42.664;23.266;2023-08-21T12:54:58;8.50;;;4.10;;
58878;SDS011;44660;42.664;23.266;2023-08-21T12:57:24;8.15;;;3.85;;
58878;SDS011;44660;42.664;23.266;2023-08-21T12:59:51;8.35;;;3.97;;
58878;SDS011;44660;42.664;23.266;2023-08-21T13:02:16;6.97;;;3.75;;
58878;SDS011;44660;42.664;23.266;2023-08-21T13:04:43;7.65;;;3.95;;
58878;SDS011;44660;42.664;23.266;2023-08-21T13:07:09;7.63;;;3.78;;
58878;SDS011;44660;42.664;23.266;2023-08-21T13:09:34;8.27;;;3.75;;
58878;SDS011;44660;42.664;23.266;2023-08-21T13:12:00;8.70;;;3.95;;
58878;SDS011;44660;42.664;23.266;2023-08-21T13:14:26;6.60;;;3.80;;
58878;SDS011;44660;42.664;23.266;2023-08-21T13:16:52;6.65;;;3.88;;
58878;SDS011;44660;42.664;23.266;2023-08-21T13:19:17;7.95;;;3.75;;
58878;SDS011;44660;42.664;23.266;2023-08-21T13:21:43;5.13;;;3.63;;
58878;SDS011;44660;42.664;23.266;2023-08-21T13:24:09;6.72;;;3.83;;
58878;SDS011;44660;42.664;23.266;2023-08-21T13:26:35;5.15;;;3.67;;
58878;SDS011;44660;42.664;23.266;2023-08-21T13:29:01;5.65;;;3.90;;
58878;SDS011;44660;42.664;23.266;2023-08-21T13:31:27;5.38;;;3.90;;
58878;SDS011;44660;42.664;23.266;2023-08-21T13:33:53;5.32;;;3.50;;
58878;SDS011;44660;42.664;23.266;2023-08-21T13:36:19;5.57;;;3.95;;
58878;SDS011;44660;42.664;23.266;2023-08-21T13:38:46;7.65;;;3.83;;
58878;SDS011;44660;42.664;23.266;2023-08-21T13:41:11;6.80;;;4.07;;
58878;SDS011;44660;42.664;23.266;2023-08-21T13:43:37;7.65;;;3.67;;
58878;SDS011;44660;42.664;23.266;2023-08-21T13:46:03;4.80;;;3.70;;
58878;SDS011;44660;42.664;23.266;2023-08-21T13:48:30;7.28;;;4.18;;
58878;SDS011;44660;42.664;23.266;2023-08-21T13:50:56;9.63;;;3.83;;
58878;SDS011;44660;42.664;23.266;2023-08-21T13:53:21;6.13;;;4.13;;
58878;SDS011;44660;42.664;23.266;2023-08-21T13:55:47;6.30;;;3.70;;
58878;SDS011;44660;42.664;23.266;2023-08-21T13:58:12;4.75;;;3.50;;
58878;SDS011;44660;42.664;23.266;2023-08-21T14:00:38;4.57;;;3.67;;
58878;SDS011;44660;42.664;23.266;2023-08-21T14:03:04;7.60;;;3.97;;
58878;SDS011;44660;42.664;23.266;2023-08-21T14:05:29;7.15;;;4.30;;
58878;SDS011;44660;42.664;23.266;2023-08-21T14:07:56;6.75;;;3.80;;
58878;SDS011;44660;42.664;23.266;2023-08-21T14:10:22;5.85;;;3.58;;
58878;SDS011;44660;42.664;23.266;2023-08-21T14:12:47;7.57;;;3.95;;
58878;SDS011;44660;42.664;23.266;2023-08-21T14:15:13;5.65;;;3.92;;
58878;SDS011;44660;42.664;23.266;2023-08-21T14:17:39;4.22;;;3.83;;
58878;SDS011;44660;42.664;23.266;2023-08-21T14:20:05;5.15;;;4.07;;
58878;SDS011;44660;42.664;23.266;2023-08-21T14:22:32;6.05;;;3.88;;
58878;SDS011;44660;42.664;23.266;2023-08-21T14:24:57;6.25;;;3.80;;
58878;SDS011;44660;42.664;23.266;2023-08-21T14:27:23;7.55;;;3.95;;
58878;SDS011;44660;42.664;23.266;2023-08-21T14:29:48;5.20;;;4.00;;
58878;SDS011;44660;42.664;23.266;2023-08-21T14:32:14;6.18;;;4.10;;
58878;SDS011;44660;42.664;23.266;2023-08-21T14:34:40;8.70;;;4.13;;